sensor_id;sensor_type;location;lat;lon;timestamp;P1;durP1;ratioP1;P2;durP2;ratioP2
61009;SDS011;46897;55.340;86.082;2022-12-08T00:00:27;142.05;;;42.47;;
61009;SDS011;46897;55.340;86.082;2022-12-08T00:02:56;139.73;;;42.33;;
61009;SDS011;46897;55.340;86.082;2022-12-08T00:05:26;174.57;;;50.72;;
61009;SDS011;46897;55.340;86.082;2022-12-08T00:08:12;170.77;;;49.15;;
61009;SDS011;46897;55.340;86.082;2022-12-08T00:13:31;93.80;;;34.25;;
61009;SDS011;46897;55.340;86.082;2022-12-08T00:16:01;110.53;;;33.55;;
61009;SDS011;46897;55.340;86.082;2022-12-08T00:18:32;93.30;;;32.38;;
61009;SDS011;46897;55.340;86.082;2022-12-08T00:21:01;73.07;;;27.20;;
61009;SDS011;46897;55.340;86.082;2022-12-08T00:23:31;97.30;;;30.13;;
61009;SDS011;46897;55.340;86.082;2022-12-08T00:26:01;67.65;;;26.70;;
61009;SDS011;46897;55.340;86.082;2022-12-08T00:28:31;90.55;;;28.30;;
61009;SDS011;46897;55.340;86.082;2022-12-08T00:31:07;95.70;;;32.67;;
61009;SDS011;46897;55.340;86.082;2022-12-08T00:33:37;94.70;;;30.30;;
61009;SDS011;46897;55.340;86.082;2022-12-08T00:36:07;119.75;;;36.67;;
61009;SDS011;46897;55.340;86.082;2022-12-08T00:38:39;108.10;;;31.20;;
61009;SDS011;46897;55.340;86.082;2022-12-08T00:41:11;113.90;;;33.75;;
61009;SDS011;46897;55.340;86.082;2022-12-08T00:43:42;85.38;;;27.15;;
61009;SDS011;46897;55.340;86.082;2022-12-08T00:46:14;117.03;;;34.63;;
61009;SDS011;46897;55.340;86.082;2022-12-08T00:48:43;93.82;;;30.70;;
61009;SDS011;46897;55.340;86.082;2022-12-08T00:51:12;112.85;;;34.30;;
61009;SDS011;46897;55.340;86.082;2022-12-08T00:53:41;114.07;;;35.50;;
61009;SDS011;46897;55.340;86.082;2022-12-08T00:56:11;130.27;;;38.08;;
61009;SDS011;46897;55.340;86.082;2022-12-08T00:58:40;120.25;;;37.42;;
61009;SDS011;46897;55.340;86.082;2022-12-08T01:01:09;99.22;;;32.13;;
61009;SDS011;46897;55.340;86.082;2022-12-08T01:03:41;89.85;;;25.63;;
61009;SDS011;46897;55.340;86.082;2022-12-08T01:06:11;115.65;;;34.72;;
61009;SDS011;46897;55.340;86.082;2022-12-08T01:08:40;96.63;;;28.95;;
61009;SDS011;46897;55.340;86.082;2022-12-08T01:11:11;116.72;;;32.97;;
61009;SDS011;46897;55.340;86.082;2022-12-08T01:13:42;57.60;;;21.20;;
61009;SDS011;46897;55.340;86.082;2022-12-08T01:16:17;86.53;;;25.98;;
61009;SDS011;46897;55.340;86.082;2022-12-08T01:18:49;60.60;;;24.90;;
61009;SDS011;46897;55.340;86.082;2022-12-08T01:21:19;110.15;;;35.83;;
61009;SDS011;46897;55.340;86.082;2022-12-08T01:23:49;109.97;;;33.80;;
61009;SDS011;46897;55.340;86.082;2022-12-08T01:26:18;54.92;;;23.17;;
61009;SDS011;46897;55.340;86.082;2022-12-08T01:28:48;82.60;;;27.98;;
61009;SDS011;46897;55.340;86.082;2022-12-08T01:31:18;92.30;;;30.42;;
61009;SDS011;46897;55.340;86.082;2022-12-08T01:33:50;87.25;;;32.17;;
61009;SDS011;46897;55.340;86.082;2022-12-08T01:36:20;89.15;;;33.33;;
61009;SDS011;46897;55.340;86.082;2022-12-08T01:38:52;69.53;;;23.90;;
61009;SDS011;46897;55.340;86.082;2022-12-08T01:41:23;62.75;;;23.17;;
61009;SDS011;46897;55.340;86.082;2022-12-08T01:43:56;98.47;;;35.33;;
61009;SDS011;46897;55.340;86.082;2022-12-08T01:46:27;122.95;;;35.53;;
61009;SDS011;46897;55.340;86.082;2022-12-08T01:49:02;74.63;;;23.45;;
61009;SDS011;46897;55.340;86.082;2022-12-08T01:51:36;74.80;;;25.67;;
61009;SDS011;46897;55.340;86.082;2022-12-08T01:56:40;55.05;;;15.52;;
61009;SDS011;46897;55.340;86.082;2022-12-08T01:59:15;32.58;;;13.88;;
61009;SDS011;46897;55.340;86.082;2022-12-08T02:01:45;33.60;;;13.55;;
61009;SDS011;46897;55.340;86.082;2022-12-08T02:04:16;52.08;;;17.38;;
61009;SDS011;46897;55.340;86.082;2022-12-08T02:06:46;38.53;;;13.88;;
61009;SDS011;46897;55.340;86.082;2022-12-08T02:09:17;56.10;;;16.58;;
61009;SDS011;46897;55.340;86.082;2022-12-08T02:11:47;63.53;;;24.55;;
61009;SDS011;46897;55.340;86.082;2022-12-08T02:14:17;46.35;;;12.93;;
61009;SDS011;46897;55.340;86.082;2022-12-08T02:16:48;38.47;;;14.20;;
61009;SDS011;46897;55.340;86.082;2022-12-08T02:19:35;39.58;;;15.48;;
61009;SDS011;46897;55.340;86.082;2022-12-08T02:22:24;53.10;;;17.05;;
61009;SDS011;46897;55.340;86.082;2022-12-08T02:25:02;44.80;;;14.13;;
61009;SDS011;46897;55.340;86.082;2022-12-08T02:27:40;47.78;;;15.35;;
61009;SDS011;46897;55.340;86.082;2022-12-08T02:30:17;18.88;;;7.25;;
61009;SDS011;46897;55.340;86.082;2022-12-08T02:33:02;39.10;;;12.32;;
61009;SDS011;46897;55.340;86.082;2022-12-08T02:35:55;36.22;;;11.85;;
61009;SDS011;46897;55.340;86.082;2022-12-08T02:38:28;21.92;;;10.02;;
61009;SDS011;46897;55.340;86.082;2022-12-08T02:41:10;39.17;;;12.77;;
61009;SDS011;46897;55.340;86.082;2022-12-08T02:43:47;46.45;;;14.35;;
61009;SDS011;46897;55.340;86.082;2022-12-08T02:46:25;44.17;;;14.02;;
61009;SDS011;46897;55.340;86.082;2022-12-08T02:51:33;35.72;;;13.65;;
61009;SDS011;46897;55.340;86.082;2022-12-08T02:54:03;40.65;;;14.20;;
61009;SDS011;46897;55.340;86.082;2022-12-08T02:56:47;29.67;;;10.70;;
61009;SDS011;46897;55.340;86.082;2022-12-08T02:59:31;45.55;;;14.73;;
61009;SDS011;46897;55.340;86.082;2022-12-08T03:02:27;33.92;;;11.27;;
61009;SDS011;46897;55.340;86.082;2022-12-08T03:05:11;37.15;;;11.20;;
61009;SDS011;46897;55.340;86.082;2022-12-08T03:07:52;23.15;;;8.10;;
61009;SDS011;46897;55.340;86.082;2022-12-08T03:10:30;24.25;;;9.35;;
61009;SDS011;46897;55.340;86.082;2022-12-08T03:13:04;30.25;;;10.40;;
61009;SDS011;46897;55.340;86.082;2022-12-08T03:15:39;28.70;;;9.82;;
61009;SDS011;46897;55.340;86.082;2022-12-08T03:18:11;19.38;;;6.80;;
61009;SDS011;46897;55.340;86.082;2022-12-08T03:20:43;23.75;;;9.73;;
61009;SDS011;46897;55.340;86.082;2022-12-08T03:23:15;31.45;;;11.05;;
61009;SDS011;46897;55.340;86.082;2022-12-08T03:25:47;51.95;;;17.00;;
61009;SDS011;46897;55.340;86.082;2022-12-08T03:28:22;33.13;;;8.95;;
61009;SDS011;46897;55.340;86.082;2022-12-08T03:30:52;39.25;;;11.57;;
61009;SDS011;46897;55.340;86.082;2022-12-08T03:33:25;40.30;;;12.27;;
61009;SDS011;46897;55.340;86.082;2022-12-08T03:36:00;40.95;;;14.82;;
61009;SDS011;46897;55.340;86.082;2022-12-08T03:38:37;48.03;;;17.35;;
61009;SDS011;46897;55.340;86.082;2022-12-08T03:41:11;42.38;;;16.60;;
61009;SDS011;46897;55.340;86.082;2022-12-08T03:43:46;43.28;;;12.30;;
61009;SDS011;46897;55.340;86.082;2022-12-08T03:46:17;36.95;;;10.82;;
61009;SDS011;46897;55.340;86.082;2022-12-08T03:48:46;37.05;;;11.55;;
61009;SDS011;46897;55.340;86.082;2022-12-08T03:51:16;33.78;;;12.20;;
61009;SDS011;46897;55.340;86.082;2022-12-08T03:53:47;49.92;;;17.52;;
61009;SDS011;46897;55.340;86.082;2022-12-08T03:56:19;55.70;;;17.67;;
61009;SDS011;46897;55.340;86.082;2022-12-08T03:58:51;37.60;;;14.23;;
61009;SDS011;46897;55.340;86.082;2022-12-08T04:01:22;55.95;;;17.33;;
61009;SDS011;46897;55.340;86.082;2022-12-08T04:03:56;26.67;;;11.57;;
61009;SDS011;46897;55.340;86.082;2022-12-08T04:06:26;43.05;;;14.05;;
61009;SDS011;46897;55.340;86.082;2022-12-08T04:08:57;48.22;;;15.55;;
61009;SDS011;46897;55.340;86.082;2022-12-08T04:11:26;49.30;;;17.00;;
61009;SDS011;46897;55.340;86.082;2022-12-08T04:13:56;39.63;;;13.25;;
61009;SDS011;46897;55.340;86.082;2022-12-08T04:16:25;27.25;;;8.82;;
61009;SDS011;46897;55.340;86.082;2022-12-08T04:18:55;39.63;;;13.95;;
61009;SDS011;46897;55.340;86.082;2022-12-08T04:21:27;43.50;;;15.90;;
61009;SDS011;46897;55.340;86.082;2022-12-08T04:23:58;45.97;;;13.98;;
61009;SDS011;46897;55.340;86.082;2022-12-08T04:26:28;25.40;;;9.65;;
61009;SDS011;46897;55.340;86.082;2022-12-08T04:28:59;18.77;;;9.73;;
61009;SDS011;46897;55.340;86.082;2022-12-08T04:31:30;35.50;;;12.07;;
61009;SDS011;46897;55.340;86.082;2022-12-08T04:34:01;42.22;;;14.35;;
61009;SDS011;46897;55.340;86.082;2022-12-08T04:36:38;57.67;;;17.52;;
61009;SDS011;46897;55.340;86.082;2022-12-08T04:39:09;39.05;;;13.25;;
61009;SDS011;46897;55.340;86.082;2022-12-08T04:41:38;50.22;;;16.35;;
61009;SDS011;46897;55.340;86.082;2022-12-08T04:44:08;37.97;;;12.40;;
61009;SDS011;46897;55.340;86.082;2022-12-08T04:46:40;31.20;;;12.38;;
61009;SDS011;46897;55.340;86.082;2022-12-08T04:49:10;37.40;;;13.68;;
61009;SDS011;46897;55.340;86.082;2022-12-08T04:51:55;33.25;;;11.75;;
61009;SDS011;46897;55.340;86.082;2022-12-08T04:55:11;45.92;;;14.40;;
61009;SDS011;46897;55.340;86.082;2022-12-08T04:57:45;30.60;;;11.85;;
61009;SDS011;46897;55.340;86.082;2022-12-08T05:00:24;41.83;;;13.68;;
61009;SDS011;46897;55.340;86.082;2022-12-08T05:03:01;62.38;;;20.70;;
61009;SDS011;46897;55.340;86.082;2022-12-08T05:05:32;55.63;;;17.92;;
61009;SDS011;46897;55.340;86.082;2022-12-08T05:08:05;44.90;;;15.27;;
61009;SDS011;46897;55.340;86.082;2022-12-08T05:10:36;42.47;;;14.02;;
61009;SDS011;46897;55.340;86.082;2022-12-08T05:13:06;53.55;;;17.67;;
61009;SDS011;46897;55.340;86.082;2022-12-08T05:15:35;49.65;;;16.63;;
61009;SDS011;46897;55.340;86.082;2022-12-08T05:18:05;39.33;;;13.68;;
61009;SDS011;46897;55.340;86.082;2022-12-08T05:20:34;52.22;;;16.20;;
61009;SDS011;46897;55.340;86.082;2022-12-08T05:23:06;59.10;;;16.20;;
61009;SDS011;46897;55.340;86.082;2022-12-08T05:25:37;60.88;;;16.38;;
61009;SDS011;46897;55.340;86.082;2022-12-08T05:28:09;42.60;;;16.38;;
61009;SDS011;46897;55.340;86.082;2022-12-08T05:30:59;46.67;;;14.88;;
61009;SDS011;46897;55.340;86.082;2022-12-08T05:33:32;42.25;;;15.35;;
61009;SDS011;46897;55.340;86.082;2022-12-08T05:36:03;36.38;;;15.73;;
61009;SDS011;46897;55.340;86.082;2022-12-08T05:38:33;48.03;;;14.95;;
61009;SDS011;46897;55.340;86.082;2022-12-08T05:41:04;42.50;;;14.50;;
61009;SDS011;46897;55.340;86.082;2022-12-08T05:43:34;43.42;;;15.45;;
61009;SDS011;46897;55.340;86.082;2022-12-08T05:46:24;34.83;;;13.02;;
61009;SDS011;46897;55.340;86.082;2022-12-08T05:48:55;44.97;;;14.98;;
61009;SDS011;46897;55.340;86.082;2022-12-08T05:51:26;43.25;;;15.68;;
61009;SDS011;46897;55.340;86.082;2022-12-08T05:53:56;50.08;;;18.05;;
61009;SDS011;46897;55.340;86.082;2022-12-08T05:56:27;43.63;;;15.38;;
61009;SDS011;46897;55.340;86.082;2022-12-08T05:58:57;43.78;;;14.25;;
61009;SDS011;46897;55.340;86.082;2022-12-08T06:01:27;40.97;;;14.38;;
61009;SDS011;46897;55.340;86.082;2022-12-08T06:03:58;47.03;;;13.13;;
61009;SDS011;46897;55.340;86.082;2022-12-08T06:06:29;43.33;;;14.38;;
61009;SDS011;46897;55.340;86.082;2022-12-08T06:09:00;51.47;;;17.60;;
61009;SDS011;46897;55.340;86.082;2022-12-08T06:11:32;35.97;;;11.02;;
61009;SDS011;46897;55.340;86.082;2022-12-08T06:14:02;44.70;;;16.55;;
61009;SDS011;46897;55.340;86.082;2022-12-08T06:16:33;53.05;;;17.50;;
61009;SDS011;46897;55.340;86.082;2022-12-08T06:19:02;50.42;;;17.77;;
61009;SDS011;46897;55.340;86.082;2022-12-08T06:21:31;44.67;;;13.82;;
61009;SDS011;46897;55.340;86.082;2022-12-08T06:24:01;49.13;;;16.15;;
61009;SDS011;46897;55.340;86.082;2022-12-08T06:26:32;34.33;;;11.25;;
61009;SDS011;46897;55.340;86.082;2022-12-08T06:29:03;36.35;;;15.05;;
61009;SDS011;46897;55.340;86.082;2022-12-08T06:31:32;47.13;;;13.90;;
61009;SDS011;46897;55.340;86.082;2022-12-08T06:34:01;49.03;;;16.20;;
61009;SDS011;46897;55.340;86.082;2022-12-08T06:36:32;32.17;;;11.35;;
61009;SDS011;46897;55.340;86.082;2022-12-08T06:39:05;43.42;;;13.48;;
61009;SDS011;46897;55.340;86.082;2022-12-08T06:41:36;40.72;;;13.20;;
61009;SDS011;46897;55.340;86.082;2022-12-08T06:44:25;50.65;;;16.67;;
61009;SDS011;46897;55.340;86.082;2022-12-08T06:46:54;42.20;;;13.40;;
61009;SDS011;46897;55.340;86.082;2022-12-08T06:49:23;52.05;;;15.30;;
61009;SDS011;46897;55.340;86.082;2022-12-08T06:51:52;39.85;;;13.93;;
61009;SDS011;46897;55.340;86.082;2022-12-08T06:54:22;39.45;;;14.68;;
61009;SDS011;46897;55.340;86.082;2022-12-08T06:56:53;51.15;;;16.85;;
61009;SDS011;46897;55.340;86.082;2022-12-08T06:59:24;67.22;;;19.58;;
61009;SDS011;46897;55.340;86.082;2022-12-08T07:01:54;46.72;;;17.63;;
61009;SDS011;46897;55.340;86.082;2022-12-08T07:04:24;42.95;;;13.93;;
61009;SDS011;46897;55.340;86.082;2022-12-08T07:06:53;37.63;;;15.07;;
61009;SDS011;46897;55.340;86.082;2022-12-08T07:09:22;48.05;;;15.85;;
61009;SDS011;46897;55.340;86.082;2022-12-08T07:11:52;59.60;;;19.60;;
61009;SDS011;46897;55.340;86.082;2022-12-08T07:14:22;55.53;;;18.40;;
61009;SDS011;46897;55.340;86.082;2022-12-08T07:16:52;44.97;;;13.27;;
61009;SDS011;46897;55.340;86.082;2022-12-08T07:19:22;35.92;;;14.02;;
61009;SDS011;46897;55.340;86.082;2022-12-08T07:21:51;44.83;;;13.68;;
61009;SDS011;46897;55.340;86.082;2022-12-08T07:24:20;52.25;;;17.38;;
61009;SDS011;46897;55.340;86.082;2022-12-08T07:26:50;44.30;;;14.63;;
61009;SDS011;46897;55.340;86.082;2022-12-08T07:29:30;43.90;;;14.15;;
61009;SDS011;46897;55.340;86.082;2022-12-08T07:31:59;38.78;;;13.20;;
61009;SDS011;46897;55.340;86.082;2022-12-08T07:34:30;47.92;;;14.52;;
61009;SDS011;46897;55.340;86.082;2022-12-08T07:37:02;53.70;;;18.08;;
61009;SDS011;46897;55.340;86.082;2022-12-08T07:39:31;39.38;;;14.90;;
61009;SDS011;46897;55.340;86.082;2022-12-08T07:42:01;49.45;;;15.70;;
61009;SDS011;46897;55.340;86.082;2022-12-08T07:44:32;50.25;;;15.68;;
61009;SDS011;46897;55.340;86.082;2022-12-08T07:47:01;39.22;;;14.73;;
61009;SDS011;46897;55.340;86.082;2022-12-08T07:49:31;37.00;;;14.45;;
61009;SDS011;46897;55.340;86.082;2022-12-08T07:52:03;30.70;;;13.35;;
61009;SDS011;46897;55.340;86.082;2022-12-08T07:54:35;36.13;;;13.82;;
61009;SDS011;46897;55.340;86.082;2022-12-08T07:57:07;31.60;;;13.52;;
61009;SDS011;46897;55.340;86.082;2022-12-08T07:59:39;46.67;;;15.30;;
61009;SDS011;46897;55.340;86.082;2022-12-08T08:02:14;37.60;;;13.98;;
61009;SDS011;46897;55.340;86.082;2022-12-08T08:04:52;42.38;;;13.50;;
61009;SDS011;46897;55.340;86.082;2022-12-08T08:07:22;44.53;;;15.90;;
61009;SDS011;46897;55.340;86.082;2022-12-08T08:09:51;45.17;;;16.98;;
61009;SDS011;46897;55.340;86.082;2022-12-08T08:12:20;48.08;;;16.15;;
61009;SDS011;46897;55.340;86.082;2022-12-08T08:15:00;43.38;;;14.20;;
61009;SDS011;46897;55.340;86.082;2022-12-08T08:17:30;29.33;;;12.82;;
61009;SDS011;46897;55.340;86.082;2022-12-08T08:20:01;39.63;;;13.15;;
61009;SDS011;46897;55.340;86.082;2022-12-08T08:22:33;41.70;;;16.05;;
61009;SDS011;46897;55.340;86.082;2022-12-08T08:25:04;35.85;;;14.60;;
61009;SDS011;46897;55.340;86.082;2022-12-08T08:27:33;43.85;;;13.77;;
61009;SDS011;46897;55.340;86.082;2022-12-08T08:30:06;36.05;;;14.68;;
61009;SDS011;46897;55.340;86.082;2022-12-08T08:32:43;39.47;;;14.73;;
61009;SDS011;46897;55.340;86.082;2022-12-08T08:35:13;45.03;;;15.23;;
61009;SDS011;46897;55.340;86.082;2022-12-08T08:37:42;38.65;;;12.13;;
61009;SDS011;46897;55.340;86.082;2022-12-08T08:40:14;47.55;;;16.75;;
61009;SDS011;46897;55.340;86.082;2022-12-08T08:42:44;39.17;;;13.75;;
61009;SDS011;46897;55.340;86.082;2022-12-08T08:45:20;44.33;;;14.55;;
61009;SDS011;46897;55.340;86.082;2022-12-08T08:47:52;57.10;;;17.63;;
61009;SDS011;46897;55.340;86.082;2022-12-08T08:50:22;44.78;;;13.40;;
61009;SDS011;46897;55.340;86.082;2022-12-08T08:52:51;33.95;;;11.85;;
61009;SDS011;46897;55.340;86.082;2022-12-08T08:55:21;40.55;;;14.00;;
61009;SDS011;46897;55.340;86.082;2022-12-08T08:57:50;37.58;;;15.40;;
61009;SDS011;46897;55.340;86.082;2022-12-08T09:00:21;49.90;;;16.42;;
61009;SDS011;46897;55.340;86.082;2022-12-08T09:02:51;55.28;;;20.38;;
61009;SDS011;46897;55.340;86.082;2022-12-08T09:05:20;49.42;;;17.83;;
61009;SDS011;46897;55.340;86.082;2022-12-08T09:07:49;55.92;;;18.00;;
61009;SDS011;46897;55.340;86.082;2022-12-08T09:10:19;53.80;;;20.55;;
61009;SDS011;46897;55.340;86.082;2022-12-08T09:12:48;57.05;;;18.38;;
61009;SDS011;46897;55.340;86.082;2022-12-08T09:15:17;38.78;;;14.23;;
61009;SDS011;46897;55.340;86.082;2022-12-08T09:17:48;28.80;;;13.38;;
61009;SDS011;46897;55.340;86.082;2022-12-08T09:20:18;42.00;;;16.23;;
61009;SDS011;46897;55.340;86.082;2022-12-08T09:22:47;58.53;;;19.52;;
61009;SDS011;46897;55.340;86.082;2022-12-08T09:25:17;57.63;;;17.23;;
61009;SDS011;46897;55.340;86.082;2022-12-08T09:27:46;64.50;;;18.67;;
61009;SDS011;46897;55.340;86.082;2022-12-08T09:30:17;51.00;;;18.08;;
61009;SDS011;46897;55.340;86.082;2022-12-08T09:32:46;43.03;;;15.07;;
61009;SDS011;46897;55.340;86.082;2022-12-08T09:35:17;55.20;;;21.73;;
61009;SDS011;46897;55.340;86.082;2022-12-08T09:37:47;47.38;;;19.60;;
61009;SDS011;46897;55.340;86.082;2022-12-08T09:40:17;44.72;;;16.30;;
61009;SDS011;46897;55.340;86.082;2022-12-08T09:43:20;60.17;;;17.63;;
61009;SDS011;46897;55.340;86.082;2022-12-08T09:46:05;44.22;;;16.30;;
61009;SDS011;46897;55.340;86.082;2022-12-08T09:48:39;67.60;;;23.92;;
61009;SDS011;46897;55.340;86.082;2022-12-08T09:51:15;57.78;;;21.35;;
61009;SDS011;46897;55.340;86.082;2022-12-08T09:53:47;58.88;;;21.15;;
61009;SDS011;46897;55.340;86.082;2022-12-08T09:56:22;51.47;;;18.13;;
61009;SDS011;46897;55.340;86.082;2022-12-08T09:58:59;57.63;;;19.90;;
61009;SDS011;46897;55.340;86.082;2022-12-08T10:01:45;50.95;;;16.52;;
61009;SDS011;46897;55.340;86.082;2022-12-08T10:04:15;58.47;;;17.50;;
61009;SDS011;46897;55.340;86.082;2022-12-08T10:06:58;49.80;;;19.17;;
61009;SDS011;46897;55.340;86.082;2022-12-08T10:09:35;44.92;;;14.55;;
61009;SDS011;46897;55.340;86.082;2022-12-08T10:12:11;44.05;;;16.52;;
61009;SDS011;46897;55.340;86.082;2022-12-08T10:17:58;58.53;;;22.52;;
61009;SDS011;46897;55.340;86.082;2022-12-08T10:20:35;54.80;;;19.17;;
61009;SDS011;46897;55.340;86.082;2022-12-08T10:23:12;69.72;;;23.17;;
61009;SDS011;46897;55.340;86.082;2022-12-08T10:25:51;61.67;;;17.75;;
61009;SDS011;46897;55.340;86.082;2022-12-08T10:28:28;72.70;;;23.05;;
61009;SDS011;46897;55.340;86.082;2022-12-08T10:31:15;39.85;;;17.80;;
61009;SDS011;46897;55.340;86.082;2022-12-08T10:33:51;67.95;;;23.42;;
61009;SDS011;46897;55.340;86.082;2022-12-08T10:42:17;58.53;;;19.60;;
61009;SDS011;46897;55.340;86.082;2022-12-08T10:45:14;55.38;;;21.33;;
61009;SDS011;46897;55.340;86.082;2022-12-08T10:48:02;48.83;;;14.93;;
61009;SDS011;46897;55.340;86.082;2022-12-08T10:50:34;76.75;;;22.70;;
61009;SDS011;46897;55.340;86.082;2022-12-08T10:53:10;64.82;;;20.95;;
61009;SDS011;46897;55.340;86.082;2022-12-08T10:56:06;57.35;;;17.58;;
61009;SDS011;46897;55.340;86.082;2022-12-08T10:58:45;57.45;;;18.60;;
61009;SDS011;46897;55.340;86.082;2022-12-08T11:01:17;64.78;;;21.70;;
61009;SDS011;46897;55.340;86.082;2022-12-08T11:04:01;40.28;;;15.85;;
61009;SDS011;46897;55.340;86.082;2022-12-08T11:06:34;64.03;;;20.95;;
61009;SDS011;46897;55.340;86.082;2022-12-08T11:09:06;54.00;;;19.85;;
61009;SDS011;46897;55.340;86.082;2022-12-08T11:11:57;61.33;;;23.92;;
61009;SDS011;46897;55.340;86.082;2022-12-08T11:14:45;56.58;;;20.58;;
61009;SDS011;46897;55.340;86.082;2022-12-08T11:17:21;62.60;;;22.50;;
61009;SDS011;46897;55.340;86.082;2022-12-08T11:19:55;61.60;;;19.73;;
61009;SDS011;46897;55.340;86.082;2022-12-08T11:22:29;50.90;;;17.73;;
61009;SDS011;46897;55.340;86.082;2022-12-08T11:25:01;51.78;;;19.42;;
61009;SDS011;46897;55.340;86.082;2022-12-08T11:27:40;68.15;;;22.52;;
61009;SDS011;46897;55.340;86.082;2022-12-08T11:30:13;44.15;;;16.48;;
61009;SDS011;46897;55.340;86.082;2022-12-08T11:32:47;66.07;;;24.50;;
61009;SDS011;46897;55.340;86.082;2022-12-08T11:35:27;67.88;;;25.67;;
61009;SDS011;46897;55.340;86.082;2022-12-08T11:38:11;76.07;;;26.83;;
61009;SDS011;46897;55.340;86.082;2022-12-08T11:40:54;51.67;;;18.85;;
61009;SDS011;46897;55.340;86.082;2022-12-08T11:43:38;58.95;;;23.00;;
61009;SDS011;46897;55.340;86.082;2022-12-08T11:46:22;74.75;;;25.15;;
61009;SDS011;46897;55.340;86.082;2022-12-08T11:49:03;52.00;;;20.65;;
61009;SDS011;46897;55.340;86.082;2022-12-08T11:51:49;42.63;;;18.35;;
61009;SDS011;46897;55.340;86.082;2022-12-08T11:54:29;69.13;;;27.92;;
61009;SDS011;46897;55.340;86.082;2022-12-08T11:57:07;86.40;;;28.08;;
61009;SDS011;46897;55.340;86.082;2022-12-08T11:59:58;68.78;;;25.73;;
61009;SDS011;46897;55.340;86.082;2022-12-08T12:02:34;71.20;;;24.58;;
61009;SDS011;46897;55.340;86.082;2022-12-08T12:05:17;77.72;;;27.63;;
61009;SDS011;46897;55.340;86.082;2022-12-08T12:08:18;60.95;;;23.17;;
61009;SDS011;46897;55.340;86.082;2022-12-08T12:11:01;50.53;;;19.88;;
61009;SDS011;46897;55.340;86.082;2022-12-08T12:16:48;41.95;;;14.70;;
61009;SDS011;46897;55.340;86.082;2022-12-08T12:19:28;88.13;;;25.50;;
61009;SDS011;46897;55.340;86.082;2022-12-08T12:22:20;72.18;;;23.90;;
61009;SDS011;46897;55.340;86.082;2022-12-08T12:24:53;64.10;;;25.15;;
61009;SDS011;46897;55.340;86.082;2022-12-08T12:27:25;72.03;;;27.85;;
61009;SDS011;46897;55.340;86.082;2022-12-08T12:32:52;61.35;;;23.27;;
61009;SDS011;46897;55.340;86.082;2022-12-08T12:35:31;63.30;;;22.55;;
61009;SDS011;46897;55.340;86.082;2022-12-08T12:38:04;56.65;;;22.48;;
61009;SDS011;46897;55.340;86.082;2022-12-08T12:40:58;64.20;;;23.33;;
61009;SDS011;46897;55.340;86.082;2022-12-08T12:43:32;82.63;;;24.48;;
61009;SDS011;46897;55.340;86.082;2022-12-08T12:52:41;62.55;;;23.83;;
61009;SDS011;46897;55.340;86.082;2022-12-08T12:55:23;70.03;;;21.48;;
61009;SDS011;46897;55.340;86.082;2022-12-08T12:58:32;59.90;;;19.20;;
61009;SDS011;46897;55.340;86.082;2022-12-08T13:04:27;60.42;;;21.95;;
61009;SDS011;46897;55.340;86.082;2022-12-08T13:07:01;43.13;;;17.77;;
61009;SDS011;46897;55.340;86.082;2022-12-08T13:09:32;94.05;;;27.70;;
61009;SDS011;46897;55.340;86.082;2022-12-08T13:12:09;74.93;;;26.20;;
61009;SDS011;46897;55.340;86.082;2022-12-08T13:14:43;94.00;;;29.50;;
61009;SDS011;46897;55.340;86.082;2022-12-08T13:17:15;124.20;;;40.90;;
61009;SDS011;46897;55.340;86.082;2022-12-08T13:19:57;135.63;;;39.38;;
61009;SDS011;46897;55.340;86.082;2022-12-08T13:22:49;97.25;;;32.45;;
61009;SDS011;46897;55.340;86.082;2022-12-08T13:25:45;114.30;;;40.13;;
61009;SDS011;46897;55.340;86.082;2022-12-08T13:28:21;157.27;;;44.50;;
61009;SDS011;46897;55.340;86.082;2022-12-08T13:30:53;130.93;;;43.45;;
61009;SDS011;46897;55.340;86.082;2022-12-08T13:33:25;117.35;;;33.30;;
61009;SDS011;46897;55.340;86.082;2022-12-08T13:36:13;115.32;;;33.47;;
61009;SDS011;46897;55.340;86.082;2022-12-08T13:38:52;115.68;;;42.25;;
61009;SDS011;46897;55.340;86.082;2022-12-08T13:41:25;187.68;;;50.55;;
61009;SDS011;46897;55.340;86.082;2022-12-08T13:44:01;179.68;;;48.25;;
61009;SDS011;46897;55.340;86.082;2022-12-08T13:46:54;123.82;;;38.08;;
61009;SDS011;46897;55.340;86.082;2022-12-08T13:49:52;87.47;;;29.33;;
61009;SDS011;46897;55.340;86.082;2022-12-08T13:52:47;137.57;;;35.88;;
61009;SDS011;46897;55.340;86.082;2022-12-08T13:55:44;155.68;;;50.00;;
61009;SDS011;46897;55.340;86.082;2022-12-08T13:58:36;96.18;;;37.65;;
61009;SDS011;46897;55.340;86.082;2022-12-08T14:01:07;157.65;;;40.15;;
61009;SDS011;46897;55.340;86.082;2022-12-08T14:06:37;108.85;;;40.65;;
61009;SDS011;46897;55.340;86.082;2022-12-08T14:09:11;100.63;;;29.75;;
61009;SDS011;46897;55.340;86.082;2022-12-08T14:11:46;99.50;;;32.92;;
61009;SDS011;46897;55.340;86.082;2022-12-08T14:17:11;92.53;;;30.63;;
61009;SDS011;46897;55.340;86.082;2022-12-08T14:19:42;105.97;;;32.03;;
61009;SDS011;46897;55.340;86.082;2022-12-08T14:22:20;121.20;;;38.35;;
61009;SDS011;46897;55.340;86.082;2022-12-08T14:24:50;165.70;;;48.30;;
61009;SDS011;46897;55.340;86.082;2022-12-08T14:27:23;131.90;;;41.33;;
61009;SDS011;46897;55.340;86.082;2022-12-08T14:29:55;105.20;;;34.25;;
61009;SDS011;46897;55.340;86.082;2022-12-08T14:32:26;148.57;;;44.97;;
61009;SDS011;46897;55.340;86.082;2022-12-08T14:34:59;162.80;;;48.65;;
61009;SDS011;46897;55.340;86.082;2022-12-08T14:37:30;101.88;;;39.83;;
61009;SDS011;46897;55.340;86.082;2022-12-08T14:40:02;151.60;;;44.83;;
61009;SDS011;46897;55.340;86.082;2022-12-08T14:42:42;183.60;;;53.55;;
61009;SDS011;46897;55.340;86.082;2022-12-08T14:45:16;154.02;;;44.70;;
61009;SDS011;46897;55.340;86.082;2022-12-08T14:47:46;120.75;;;39.92;;
61009;SDS011;46897;55.340;86.082;2022-12-08T14:50:36;177.32;;;54.88;;
61009;SDS011;46897;55.340;86.082;2022-12-08T14:53:11;179.88;;;52.70;;
61009;SDS011;46897;55.340;86.082;2022-12-08T14:55:42;131.65;;;43.08;;
61009;SDS011;46897;55.340;86.082;2022-12-08T14:58:19;138.88;;;45.58;;
61009;SDS011;46897;55.340;86.082;2022-12-08T15:00:54;147.18;;;45.78;;
61009;SDS011;46897;55.340;86.082;2022-12-08T15:03:26;126.53;;;45.85;;
61009;SDS011;46897;55.340;86.082;2022-12-08T15:05:58;166.07;;;50.63;;
61009;SDS011;46897;55.340;86.082;2022-12-08T15:08:32;162.30;;;51.40;;
61009;SDS011;46897;55.340;86.082;2022-12-08T15:11:11;223.25;;;65.60;;
61009;SDS011;46897;55.340;86.082;2022-12-08T15:13:58;241.77;;;70.32;;
61009;SDS011;46897;55.340;86.082;2022-12-08T15:16:29;236.45;;;68.30;;
61009;SDS011;46897;55.340;86.082;2022-12-08T15:19:17;292.90;;;87.43;;
61009;SDS011;46897;55.340;86.082;2022-12-08T15:21:56;400.00;;;116.35;;
61009;SDS011;46897;55.340;86.082;2022-12-08T15:24:28;296.90;;;93.40;;
61009;SDS011;46897;55.340;86.082;2022-12-08T15:26:57;339.10;;;108.05;;